createdAt,value
2022-12-01T00:03:45.737Z,31.27
2022-12-01T00:08:50.178Z,30.77
2022-12-01T00:13:52.259Z,29.75
2022-12-01T00:18:55.955Z,32.15
2022-12-01T00:23:58.952Z,31.83
2022-12-01T00:29:01.113Z,33.65
2022-12-01T00:34:08.218Z,30.77
2022-12-01T00:39:13.587Z,30.33
2022-12-01T00:44:15.682Z,30.42
2022-12-01T00:49:19.311Z,31.33
2022-12-01T00:54:21.462Z,31.65
2022-12-01T00:59:23.532Z,30.52
2022-12-01T01:04:29.969Z,31.73
2022-12-01T01:09:32.248Z,27.40
2022-12-01T01:14:34.534Z,29.88
2022-12-01T01:19:38.108Z,29.33
2022-12-01T01:24:40.325Z,31.52
2022-12-01T01:29:42.477Z,30.65
2022-12-01T01:34:46.118Z,29.38
2022-12-01T01:39:48.547Z,28.55
2022-12-01T01:44:54.247Z,30.02
2022-12-01T01:50:02.341Z,30.38
2022-12-01T01:55:05.217Z,31.08
2022-12-01T02:00:10.154Z,29.42
2022-12-01T02:05:17.977Z,31.48
2022-12-01T02:10:21.298Z,30.30
2022-12-01T02:15:30.179Z,30.00
2022-12-01T02:21:12.461Z,29.75
2022-12-01T02:26:33.506Z,26.98
2022-12-01T02:31:43.254Z,28.88
2022-12-01T02:36:52.554Z,30.23
2022-12-01T02:42:04.534Z,31.75
2022-12-01T02:47:12.176Z,28.20
2022-12-01T02:52:15.894Z,31.25
2022-12-01T02:57:18.324Z,30.35
2022-12-01T03:02:32.307Z,30.02
2022-12-01T03:07:51.585Z,32.33
2022-12-01T03:13:07.762Z,30.45
2022-12-01T03:18:28.077Z,28.20
2022-12-01T03:23:39.399Z,29.35
2022-12-01T03:28:47.376Z,28.25
2022-12-01T03:34:05.032Z,30.75
2022-12-01T03:39:15.401Z,29.60
2022-12-01T03:44:22.632Z,28.20
2022-12-01T03:54:40.522Z,27.48
2022-12-01T03:59:44.277Z,28.70
2022-12-01T04:04:47.797Z,29.45
2022-12-01T04:09:50.176Z,28.48
2022-12-01T04:14:52.675Z,25.85
2022-12-01T04:19:56.620Z,30.05
2022-12-01T04:24:58.727Z,34.22
2022-12-01T04:30:00.966Z,33.50
2022-12-01T04:35:05.048Z,30.38
2022-12-01T04:40:08.784Z,33.13
2022-12-01T04:45:11.326Z,29.10
2022-12-01T04:50:15.016Z,29.83
2022-12-01T04:55:17.237Z,27.88
2022-12-01T05:00:19.624Z,25.88
2022-12-01T05:05:23.148Z,27.70
2022-12-01T05:10:25.979Z,29.05
2022-12-01T05:15:28.211Z,25.17
2022-12-01T05:20:31.707Z,25.73
2022-12-01T05:25:34.337Z,26.85
2022-12-01T05:30:36.493Z,24.95
2022-12-01T05:35:40.038Z,28.38
2022-12-01T05:40:42.318Z,27.60
2022-12-01T05:45:44.572Z,26.02
2022-12-01T05:50:48.202Z,26.77
2022-12-01T05:55:52.741Z,26.55
2022-12-01T06:00:54.854Z,24.05
2022-12-01T06:05:58.651Z,24.05
2022-12-01T06:11:00.842Z,24.27
2022-12-01T06:16:05.665Z,24.75
2022-12-01T06:21:09.231Z,24.90
2022-12-01T06:26:11.385Z,27.10
2022-12-01T06:31:13.695Z,26.15
2022-12-01T06:36:17.362Z,26.40
2022-12-01T06:41:19.693Z,27.65
2022-12-01T06:46:21.890Z,27.85
2022-12-01T06:51:25.448Z,24.77
2022-12-01T06:56:27.571Z,27.20
2022-12-01T07:01:30.920Z,28.45
2022-12-01T07:06:34.435Z,25.75
2022-12-01T07:11:36.588Z,25.05
2022-12-01T07:16:38.771Z,27.27
2022-12-01T07:21:42.341Z,28.85
2022-12-01T07:26:44.440Z,29.38
2022-12-01T07:31:46.636Z,24.23
2022-12-01T07:36:50.253Z,25.50
2022-12-01T07:41:52.347Z,28.17
2022-12-01T07:46:54.645Z,25.33
2022-12-01T07:51:58.254Z,23.77
2022-12-01T07:57:00.323Z,23.63
2022-12-01T08:02:02.553Z,23.83
2022-12-01T08:07:06.278Z,24.23
2022-12-01T08:12:08.453Z,23.60
2022-12-01T08:17:10.665Z,23.05
2022-12-01T08:22:14.303Z,22.55
2022-12-01T08:27:16.453Z,22.90
2022-12-01T08:32:18.732Z,24.08
2022-12-01T08:37:22.549Z,22.13
2022-12-01T08:42:24.774Z,24.67
2022-12-01T08:47:28.476Z,22.73
2022-12-01T08:52:33.795Z,23.50
2022-12-01T08:57:36.023Z,24.60
2022-12-01T09:02:38.463Z,24.58
2022-12-01T09:07:42.133Z,23.52
2022-12-01T09:12:44.315Z,28.23
2022-12-01T09:17:46.508Z,26.08
2022-12-01T09:22:50.102Z,28.55
2022-12-01T09:27:52.321Z,26.80
2022-12-01T09:32:54.596Z,29.58
2022-12-01T09:37:58.231Z,28.23
2022-12-01T09:43:03.565Z,32.25
2022-12-01T09:48:07.882Z,33.50
2022-12-01T09:53:18.690Z,33.58
2022-12-01T09:58:24.949Z,36.50
2022-12-01T10:03:35.282Z,38.33
2022-12-01T10:08:45.457Z,37.15
2022-12-01T10:13:47.666Z,38.47
2022-12-01T10:18:57.890Z,39.97
2022-12-01T10:24:20.746Z,37.20
2022-12-01T10:29:30.356Z,36.08
2022-12-01T10:34:36.384Z,40.75
2022-12-01T10:39:42.877Z,39.10
2022-12-01T10:44:46.627Z,42.30
2022-12-01T10:49:49.122Z,43.40
2022-12-01T10:54:52.910Z,40.28
2022-12-01T10:59:58.899Z,37.75
2022-12-01T11:05:03.248Z,38.88
2022-12-01T11:10:19.523Z,41.00
2022-12-01T11:15:24.699Z,36.97
2022-12-01T11:20:34.843Z,36.58
2022-12-01T11:25:38.671Z,33.05
2022-12-01T11:30:40.856Z,31.33
2022-12-01T11:35:48.782Z,34.40
2022-12-01T11:40:54.959Z,41.15
2022-12-01T11:45:59.324Z,33.17
2022-12-01T11:51:06.773Z,39.72
2022-12-01T11:56:21.957Z,37.90
2022-12-01T12:01:39.338Z,36.97
2022-12-01T12:06:49.799Z,39.70
2022-12-01T12:12:02.778Z,35.53
2022-12-01T12:17:44.133Z,33.63
2022-12-01T12:22:56.200Z,34.20
2022-12-01T12:28:14.255Z,36.05
2022-12-01T12:33:53.110Z,32.47
2022-12-01T12:39:13.484Z,35.55
2022-12-01T12:44:45.649Z,37.83
2022-12-01T12:49:53.792Z,34.38
2022-12-01T12:55:00.438Z,36.22
2022-12-01T13:00:13.539Z,37.42
2022-12-01T13:05:21.040Z,31.23
2022-12-01T13:10:29.991Z,34.60
2022-12-01T13:15:35.583Z,34.50
2022-12-01T13:20:38.081Z,29.92
2022-12-01T13:25:41.334Z,32.90
2022-12-01T13:31:01.702Z,33.38
2022-12-01T13:41:34.621Z,31.13
2022-12-01T13:46:56.393Z,29.77
2022-12-01T13:52:26.494Z,29.85
2022-12-01T13:57:30.990Z,27.40
2022-12-01T14:02:36.135Z,32.38
2022-12-01T14:07:38.865Z,28.42
2022-12-01T14:12:46.036Z,27.63
2022-12-01T14:18:00.611Z,29.45
2022-12-01T14:23:11.644Z,29.15
2022-12-01T14:28:16.235Z,24.70
2022-12-01T14:33:46.544Z,26.25
2022-12-01T14:38:50.105Z,27.80
2022-12-01T14:43:57.706Z,27.58
2022-12-01T14:49:03.936Z,28.80
2022-12-01T14:54:12.455Z,29.30
2022-12-01T14:59:19.491Z,27.52
2022-12-01T15:04:23.191Z,30.38
2022-12-01T15:09:33.644Z,28.45
2022-12-01T15:14:38.564Z,28.92
2022-12-01T15:19:42.135Z,24.95
2022-12-01T15:24:45.656Z,26.85
2022-12-01T15:29:48.191Z,25.77
2022-12-01T15:34:54.588Z,27.27
2022-12-01T15:40:43.128Z,26.00
2022-12-01T15:45:23.061Z,23.92
2022-12-01T15:50:31.534Z,25.45
2022-12-01T15:55:36.875Z,25.60
2022-12-01T16:00:39.239Z,25.17
2022-12-01T16:05:44.738Z,26.77
2022-12-01T16:11:07.343Z,25.63
2022-12-01T16:16:41.636Z,24.38
2022-12-01T16:21:47.761Z,29.20
2022-12-01T16:26:53.360Z,23.75
2022-12-01T16:32:20.274Z,25.05
2022-12-01T16:37:21.100Z,23.70
2022-12-01T16:42:23.240Z,24.92
2022-12-01T16:47:25.827Z,26.45
2022-12-01T16:52:44.130Z,25.38
2022-12-01T16:57:46.641Z,22.83
2022-12-01T17:02:48.816Z,22.25
2022-12-01T17:07:52.520Z,24.48
2022-12-01T17:12:54.753Z,23.27
2022-12-01T17:17:56.900Z,25.30
2022-12-01T17:23:00.521Z,24.67
2022-12-01T17:28:02.623Z,23.98
2022-12-01T17:33:04.898Z,20.73
2022-12-01T17:38:08.460Z,20.02
2022-12-01T17:43:10.643Z,19.35
2022-12-01T17:48:12.715Z,21.85
2022-12-01T17:53:16.213Z,21.08
2022-12-01T17:58:18.307Z,24.52
2022-12-01T18:03:20.928Z,16.58
2022-12-01T18:08:25.817Z,23.70
2022-12-01T18:13:28.018Z,25.92
2022-12-01T18:18:30.181Z,19.17
2022-12-01T18:23:33.814Z,22.35
2022-12-01T18:28:36.068Z,20.92
2022-12-01T18:33:40.082Z,19.30
2022-12-01T18:38:44.111Z,22.77
2022-12-01T18:43:47.398Z,22.00
2022-12-01T18:48:51.480Z,22.92
2022-12-01T18:53:56.410Z,26.17
2022-12-01T18:59:00.961Z,22.70
2022-12-01T19:04:04.385Z,22.10
2022-12-01T19:09:09.654Z,20.85
2022-12-01T19:14:14.606Z,21.00
2022-12-01T19:19:16.705Z,21.65
2022-12-01T19:24:20.335Z,21.63
2022-12-01T19:29:22.428Z,19.25
2022-12-01T19:34:24.826Z,20.20
2022-12-01T19:39:28.386Z,16.95
2022-12-01T19:44:30.598Z,22.70
2022-12-01T19:49:32.727Z,21.50
2022-12-01T19:54:36.355Z,19.95
2022-12-01T19:59:38.409Z,21.75
2022-12-01T20:04:40.506Z,21.35
2022-12-01T20:09:48.423Z,20.67
2022-12-01T20:14:52.458Z,20.65
2022-12-01T20:19:54.869Z,20.17
2022-12-01T20:24:58.478Z,23.38
2022-12-01T20:30:00.658Z,21.35
2022-12-01T20:35:02.839Z,22.15
2022-12-01T20:40:08.064Z,22.13
2022-12-01T20:45:10.236Z,20.45
2022-12-01T20:50:12.329Z,20.00
2022-12-01T20:55:15.932Z,19.10
2022-12-01T21:00:18.774Z,20.08
2022-12-01T21:05:20.939Z,16.05
2022-12-01T21:10:24.550Z,17.05
2022-12-01T21:15:28.814Z,17.50
2022-12-01T21:20:33.266Z,16.90
2022-12-01T21:25:38.457Z,14.45
2022-12-01T21:30:42.048Z,15.60
2022-12-01T21:35:44.337Z,15.23
2022-12-01T21:40:47.960Z,17.23
2022-12-01T21:45:52.572Z,16.05
2022-12-01T21:51:00.962Z,15.45
2022-12-01T21:56:04.698Z,16.92
2022-12-01T22:01:16.680Z,16.27
2022-12-01T22:06:31.387Z,16.67
2022-12-01T22:11:35.203Z,16.38
2022-12-01T22:16:40.862Z,16.42
2022-12-01T22:21:46.110Z,16.33
2022-12-01T22:26:52.987Z,17.67
2022-12-01T22:32:21.040Z,17.20
2022-12-01T22:37:25.362Z,16.17
2022-12-01T22:42:31.554Z,17.65
2022-12-01T22:47:34.314Z,19.05
2022-12-01T22:52:36.392Z,17.83
2022-12-01T22:57:39.881Z,18.73
2022-12-01T23:02:42.255Z,19.73
2022-12-01T23:07:44.503Z,21.65
2022-12-01T23:12:50.178Z,20.30
2022-12-01T23:17:52.459Z,19.38
2022-12-01T23:22:55.886Z,18.23
2022-12-01T23:28:03.402Z,20.52
2022-12-01T23:33:20.858Z,20.20
2022-12-01T23:38:30.948Z,20.15
2022-12-01T23:43:38.432Z,18.65
2022-12-01T23:48:43.571Z,19.33
2022-12-01T23:53:46.716Z,18.48
2022-12-01T23:58:51.168Z,20.17
